Wolf Point, MT

2:06 AM MDT on July 25, 2016 (GMT -0600)
Clayton | | Change Station

Elev 1985 ft 48.09 °N, 105.58 °W | Updated 13 minutes ago

Clear
Clear
61 °F
Feels Like 61 °F
N
6
Wind Variable Wind from NE

Today
High -- | Low -- °F
--% Chance of Precip.
Yesterday
High -- | Low -- °F
Precip. -- in
Pressure 29.95 in
Visibility 10.0 miles
Clouds Clear
Dew Point 54 °F
Humidity 78%
Rainfall 0.00 in
Snow Depth Not available.
5:30 AM 8:46 PM
Waning Gibbous, 68% visible
METAR KOLF 250753Z AUTO 05005KT 10SM CLR 16/12 A2997 RMK AO2 SLP140 T01610122
Pressure 29.95 in
Visibility 10.0 miles
Clouds Clear
Dew Point 54 °F
Humidity 78%
Rainfall 0.00 in
Snow Depth Not available.
5:30 AM 8:46 PM
Waning Gibbous, 68% visible
METAR KOLF 250753Z AUTO 05005KT 10SM CLR 16/12 A2997 RMK AO2 SLP140 T01610122

10-Day Weather Forecast

Almanac

Astronomy

Jul. 25, 2016 Rise Set
Actual Time
Civil Twilight
Nautical Twilight
Astronomical Twilight
Moon
Length of Visible Light
Length of Day
Tomorrow will be .
, % of the Moon is Illuminated

Today's Extremes

State Highs State Lows

Community

WunderPhotos

Upload Photos

1,927,274 photos uploaded!

WunderBlog® & News

Nearby

Air Quality

  Air Quality AQ Index Pollutant
Not available.

Snow Depth

Station Depth Elevation

Earthquake Activity

City Distance Mag. Time & Date
Minimum magnitude displayed is 2.5.

Coastal Water Temperatures

Place Temperature

Stations

Nearby Weather Stations

Station Location Temp. Windchill Dew Point Humidity Wind Precip. Elev Updated Type
                   

Watches & Warnings

There are currently no watches in effect.